sensor_id;sensor_type;location;lat;lon;timestamp;P1;durP1;ratioP1;P2;durP2;ratioP2
43807;SDS011;29438;50.664;10.098;2022-08-18T00:02:26;4.75;;;3.67;;
43807;SDS011;29438;50.664;10.098;2022-08-18T00:04:54;5.07;;;3.90;;
43807;SDS011;29438;50.664;10.098;2022-08-18T00:07:26;4.35;;;3.67;;
43807;SDS011;29438;50.664;10.098;2022-08-18T00:09:53;5.22;;;3.67;;
43807;SDS011;29438;50.664;10.098;2022-08-18T00:12:21;4.35;;;3.47;;
43807;SDS011;29438;50.664;10.098;2022-08-18T00:14:49;5.20;;;3.90;;
43807;SDS011;29438;50.664;10.098;2022-08-18T00:17:15;5.05;;;3.83;;
43807;SDS011;29438;50.664;10.098;2022-08-18T00:19:42;5.40;;;3.97;;
43807;SDS011;29438;50.664;10.098;2022-08-18T00:22:08;5.10;;;3.55;;
43807;SDS011;29438;50.664;10.098;2022-08-18T00:24:35;4.65;;;3.70;;
43807;SDS011;29438;50.664;10.098;2022-08-18T00:27:02;4.30;;;3.63;;
43807;SDS011;29438;50.664;10.098;2022-08-18T00:29:29;6.05;;;3.70;;
43807;SDS011;29438;50.664;10.098;2022-08-18T00:31:54;4.00;;;3.47;;
43807;SDS011;29438;50.664;10.098;2022-08-18T00:34:20;6.63;;;3.70;;
43807;SDS011;29438;50.664;10.098;2022-08-18T00:36:45;4.45;;;3.80;;
43807;SDS011;29438;50.664;10.098;2022-08-18T00:39:11;6.22;;;4.20;;
43807;SDS011;29438;50.664;10.098;2022-08-18T00:41:36;5.43;;;4.00;;
43807;SDS011;29438;50.664;10.098;2022-08-18T00:44:02;4.13;;;3.50;;
43807;SDS011;29438;50.664;10.098;2022-08-18T00:46:32;5.15;;;3.78;;
43807;SDS011;29438;50.664;10.098;2022-08-18T00:49:00;4.65;;;3.63;;
43807;SDS011;29438;50.664;10.098;2022-08-18T00:51:30;5.03;;;3.95;;
43807;SDS011;29438;50.664;10.098;2022-08-18T00:54:24;4.40;;;3.60;;
43807;SDS011;29438;50.664;10.098;2022-08-18T00:56:59;4.45;;;3.58;;
43807;SDS011;29438;50.664;10.098;2022-08-18T01:02:16;5.15;;;3.83;;
43807;SDS011;29438;50.664;10.098;2022-08-18T01:07:57;5.13;;;3.70;;
43807;SDS011;29438;50.664;10.098;2022-08-18T01:10:23;5.03;;;3.75;;
43807;SDS011;29438;50.664;10.098;2022-08-18T01:12:51;4.30;;;3.28;;
43807;SDS011;29438;50.664;10.098;2022-08-18T01:15:21;5.55;;;3.72;;
43807;SDS011;29438;50.664;10.098;2022-08-18T01:17:49;5.20;;;3.75;;
43807;SDS011;29438;50.664;10.098;2022-08-18T01:20:42;5.43;;;3.67;;
43807;SDS011;29438;50.664;10.098;2022-08-18T01:23:32;6.07;;;3.75;;
43807;SDS011;29438;50.664;10.098;2022-08-18T01:25:59;4.38;;;3.58;;
43807;SDS011;29438;50.664;10.098;2022-08-18T01:28:26;5.38;;;3.45;;
43807;SDS011;29438;50.664;10.098;2022-08-18T01:31:03;4.68;;;3.75;;
43807;SDS011;29438;50.664;10.098;2022-08-18T01:33:31;5.22;;;4.13;;
43807;SDS011;29438;50.664;10.098;2022-08-18T01:36:08;5.85;;;4.13;;
43807;SDS011;29438;50.664;10.098;2022-08-18T01:38:38;8.40;;;4.03;;
43807;SDS011;29438;50.664;10.098;2022-08-18T01:41:04;7.30;;;4.88;;
43807;SDS011;29438;50.664;10.098;2022-08-18T01:43:31;6.68;;;4.70;;
43807;SDS011;29438;50.664;10.098;2022-08-18T01:45:58;6.22;;;4.80;;
43807;SDS011;29438;50.664;10.098;2022-08-18T01:48:25;5.95;;;4.25;;
43807;SDS011;29438;50.664;10.098;2022-08-18T01:50:52;6.45;;;4.60;;
43807;SDS011;29438;50.664;10.098;2022-08-18T01:53:20;6.55;;;4.03;;
43807;SDS011;29438;50.664;10.098;2022-08-18T01:55:46;6.88;;;4.22;;
43807;SDS011;29438;50.664;10.098;2022-08-18T01:58:12;6.25;;;4.10;;
43807;SDS011;29438;50.664;10.098;2022-08-18T02:00:38;5.60;;;4.28;;
43807;SDS011;29438;50.664;10.098;2022-08-18T02:03:06;4.90;;;4.15;;
43807;SDS011;29438;50.664;10.098;2022-08-18T02:05:39;5.70;;;3.92;;
43807;SDS011;29438;50.664;10.098;2022-08-18T02:08:09;5.38;;;4.28;;
43807;SDS011;29438;50.664;10.098;2022-08-18T02:10:36;6.47;;;4.10;;
43807;SDS011;29438;50.664;10.098;2022-08-18T02:13:02;4.80;;;3.80;;
43807;SDS011;29438;50.664;10.098;2022-08-18T02:15:28;5.22;;;4.18;;
43807;SDS011;29438;50.664;10.098;2022-08-18T02:17:54;5.93;;;4.50;;
43807;SDS011;29438;50.664;10.098;2022-08-18T02:20:20;4.78;;;4.10;;
43807;SDS011;29438;50.664;10.098;2022-08-18T02:22:45;5.10;;;4.15;;
43807;SDS011;29438;50.664;10.098;2022-08-18T02:25:14;4.88;;;4.03;;
43807;SDS011;29438;50.664;10.098;2022-08-18T02:27:40;5.28;;;4.10;;
43807;SDS011;29438;50.664;10.098;2022-08-18T02:30:07;5.65;;;3.80;;
43807;SDS011;29438;50.664;10.098;2022-08-18T02:32:35;6.00;;;4.03;;
43807;SDS011;29438;50.664;10.098;2022-08-18T02:35:02;5.57;;;4.03;;
43807;SDS011;29438;50.664;10.098;2022-08-18T02:37:29;5.18;;;4.30;;
43807;SDS011;29438;50.664;10.098;2022-08-18T02:39:55;4.80;;;4.05;;
43807;SDS011;29438;50.664;10.098;2022-08-18T02:42:21;5.65;;;3.80;;
43807;SDS011;29438;50.664;10.098;2022-08-18T02:44:46;5.15;;;4.10;;
43807;SDS011;29438;50.664;10.098;2022-08-18T02:47:12;5.10;;;4.05;;
43807;SDS011;29438;50.664;10.098;2022-08-18T02:49:38;5.15;;;4.10;;
43807;SDS011;29438;50.664;10.098;2022-08-18T02:52:04;6.90;;;4.45;;
43807;SDS011;29438;50.664;10.098;2022-08-18T02:54:30;5.55;;;4.25;;
43807;SDS011;29438;50.664;10.098;2022-08-18T02:56:56;5.57;;;4.13;;
43807;SDS011;29438;50.664;10.098;2022-08-18T02:59:23;5.28;;;4.32;;
43807;SDS011;29438;50.664;10.098;2022-08-18T03:01:52;5.05;;;4.13;;
43807;SDS011;29438;50.664;10.098;2022-08-18T03:04:20;6.82;;;4.78;;
43807;SDS011;29438;50.664;10.098;2022-08-18T03:06:52;6.43;;;4.43;;
43807;SDS011;29438;50.664;10.098;2022-08-18T03:09:18;6.50;;;4.60;;
43807;SDS011;29438;50.664;10.098;2022-08-18T03:11:44;6.65;;;4.80;;
43807;SDS011;29438;50.664;10.098;2022-08-18T03:14:10;7.93;;;4.57;;
43807;SDS011;29438;50.664;10.098;2022-08-18T03:16:38;6.22;;;4.30;;
43807;SDS011;29438;50.664;10.098;2022-08-18T03:19:05;6.53;;;4.60;;
43807;SDS011;29438;50.664;10.098;2022-08-18T03:21:31;6.45;;;4.40;;
43807;SDS011;29438;50.664;10.098;2022-08-18T03:23:59;5.22;;;4.40;;
43807;SDS011;29438;50.664;10.098;2022-08-18T03:26:25;5.65;;;4.40;;
43807;SDS011;29438;50.664;10.098;2022-08-18T03:28:52;5.80;;;4.40;;
43807;SDS011;29438;50.664;10.098;2022-08-18T03:31:19;7.20;;;4.90;;
43807;SDS011;29438;50.664;10.098;2022-08-18T03:33:46;7.05;;;4.43;;
43807;SDS011;29438;50.664;10.098;2022-08-18T03:36:14;5.78;;;4.13;;
43807;SDS011;29438;50.664;10.098;2022-08-18T03:38:43;5.55;;;4.60;;
43807;SDS011;29438;50.664;10.098;2022-08-18T03:41:11;7.00;;;4.22;;
43807;SDS011;29438;50.664;10.098;2022-08-18T03:43:39;8.70;;;4.43;;
43807;SDS011;29438;50.664;10.098;2022-08-18T03:46:06;6.30;;;4.47;;
43807;SDS011;29438;50.664;10.098;2022-08-18T03:48:34;7.43;;;4.63;;
43807;SDS011;29438;50.664;10.098;2022-08-18T03:51:05;6.85;;;5.03;;
43807;SDS011;29438;50.664;10.098;2022-08-18T03:53:33;7.50;;;5.63;;
43807;SDS011;29438;50.664;10.098;2022-08-18T03:55:59;17.35;;;11.48;;
43807;SDS011;29438;50.664;10.098;2022-08-18T03:58:25;18.40;;;12.80;;
43807;SDS011;29438;50.664;10.098;2022-08-18T04:00:51;15.55;;;10.82;;
43807;SDS011;29438;50.664;10.098;2022-08-18T04:03:17;8.02;;;5.68;;
43807;SDS011;29438;50.664;10.098;2022-08-18T04:05:43;10.48;;;7.15;;
43807;SDS011;29438;50.664;10.098;2022-08-18T04:08:09;7.38;;;5.53;;
43807;SDS011;29438;50.664;10.098;2022-08-18T04:10:35;11.48;;;7.70;;
43807;SDS011;29438;50.664;10.098;2022-08-18T04:13:00;9.88;;;7.50;;
43807;SDS011;29438;50.664;10.098;2022-08-18T04:15:29;11.43;;;8.48;;
43807;SDS011;29438;50.664;10.098;2022-08-18T04:17:59;12.35;;;8.00;;
43807;SDS011;29438;50.664;10.098;2022-08-18T04:20:28;13.05;;;9.82;;
43807;SDS011;29438;50.664;10.098;2022-08-18T04:22:57;19.60;;;12.38;;
43807;SDS011;29438;50.664;10.098;2022-08-18T04:25:23;17.85;;;12.43;;
43807;SDS011;29438;50.664;10.098;2022-08-18T04:27:50;21.98;;;13.68;;
43807;SDS011;29438;50.664;10.098;2022-08-18T04:30:15;19.25;;;12.23;;
43807;SDS011;29438;50.664;10.098;2022-08-18T04:32:41;16.63;;;10.55;;
43807;SDS011;29438;50.664;10.098;2022-08-18T04:35:07;15.98;;;10.98;;
43807;SDS011;29438;50.664;10.098;2022-08-18T04:37:35;20.17;;;12.10;;
43807;SDS011;29438;50.664;10.098;2022-08-18T04:40:01;18.60;;;12.82;;
43807;SDS011;29438;50.664;10.098;2022-08-18T04:42:28;22.75;;;14.35;;
43807;SDS011;29438;50.664;10.098;2022-08-18T04:44:53;18.70;;;13.90;;
43807;SDS011;29438;50.664;10.098;2022-08-18T04:47:19;26.00;;;17.20;;
43807;SDS011;29438;50.664;10.098;2022-08-18T04:49:44;23.27;;;16.13;;
43807;SDS011;29438;50.664;10.098;2022-08-18T04:52:10;21.20;;;15.02;;
43807;SDS011;29438;50.664;10.098;2022-08-18T04:54:54;22.38;;;14.40;;
43807;SDS011;29438;50.664;10.098;2022-08-18T04:57:20;20.88;;;15.50;;
43807;SDS011;29438;50.664;10.098;2022-08-18T04:59:47;23.13;;;16.08;;
43807;SDS011;29438;50.664;10.098;2022-08-18T05:02:14;18.05;;;11.80;;
43807;SDS011;29438;50.664;10.098;2022-08-18T05:04:41;17.13;;;10.60;;
43807;SDS011;29438;50.664;10.098;2022-08-18T05:07:11;12.65;;;9.77;;
43807;SDS011;29438;50.664;10.098;2022-08-18T05:09:38;14.68;;;10.10;;
43807;SDS011;29438;50.664;10.098;2022-08-18T05:12:06;14.38;;;9.38;;
43807;SDS011;29438;50.664;10.098;2022-08-18T05:14:32;11.60;;;8.65;;
43807;SDS011;29438;50.664;10.098;2022-08-18T05:16:59;13.75;;;8.65;;
43807;SDS011;29438;50.664;10.098;2022-08-18T05:19:25;12.35;;;8.63;;
43807;SDS011;29438;50.664;10.098;2022-08-18T05:21:52;9.13;;;7.00;;
43807;SDS011;29438;50.664;10.098;2022-08-18T05:24:19;7.55;;;6.13;;
43807;SDS011;29438;50.664;10.098;2022-08-18T05:26:46;8.40;;;5.78;;
43807;SDS011;29438;50.664;10.098;2022-08-18T05:29:13;9.05;;;6.10;;
43807;SDS011;29438;50.664;10.098;2022-08-18T05:31:39;8.00;;;6.40;;
43807;SDS011;29438;50.664;10.098;2022-08-18T05:34:05;8.15;;;5.88;;
43807;SDS011;29438;50.664;10.098;2022-08-18T05:41:49;15.43;;;8.80;;
43807;SDS011;29438;50.664;10.098;2022-08-18T05:44:27;13.98;;;9.23;;
43807;SDS011;29438;50.664;10.098;2022-08-18T05:47:11;21.55;;;11.00;;
43807;SDS011;29438;50.664;10.098;2022-08-18T05:49:39;15.50;;;11.02;;
43807;SDS011;29438;50.664;10.098;2022-08-18T05:52:12;14.38;;;10.52;;
43807;SDS011;29438;50.664;10.098;2022-08-18T05:55:00;15.98;;;10.82;;
43807;SDS011;29438;50.664;10.098;2022-08-18T05:57:49;21.25;;;14.10;;
43807;SDS011;29438;50.664;10.098;2022-08-18T06:00:19;23.08;;;14.20;;
43807;SDS011;29438;50.664;10.098;2022-08-18T06:05:32;20.75;;;13.80;;
43807;SDS011;29438;50.664;10.098;2022-08-18T06:08:04;23.88;;;17.52;;
43807;SDS011;29438;50.664;10.098;2022-08-18T06:10:34;18.08;;;12.90;;
43807;SDS011;29438;50.664;10.098;2022-08-18T06:13:01;51.92;;;38.25;;
43807;SDS011;29438;50.664;10.098;2022-08-18T06:15:29;25.33;;;18.27;;
43807;SDS011;29438;50.664;10.098;2022-08-18T06:32:18;29.88;;;21.45;;
43807;SDS011;29438;50.664;10.098;2022-08-18T06:35:02;20.25;;;13.15;;
43807;SDS011;29438;50.664;10.098;2022-08-18T06:41:02;22.08;;;14.80;;
43807;SDS011;29438;50.664;10.098;2022-08-18T06:43:57;20.55;;;14.20;;
43807;SDS011;29438;50.664;10.098;2022-08-18T06:46:27;33.70;;;22.63;;
43807;SDS011;29438;50.664;10.098;2022-08-18T06:49:05;58.55;;;29.38;;
43807;SDS011;29438;50.664;10.098;2022-08-18T06:51:34;81.00;;;34.53;;
43807;SDS011;29438;50.664;10.098;2022-08-18T06:56:50;34.22;;;22.33;;
43807;SDS011;29438;50.664;10.098;2022-08-18T07:04:36;33.80;;;22.10;;
43807;SDS011;29438;50.664;10.098;2022-08-18T07:07:15;32.07;;;21.30;;
43807;SDS011;29438;50.664;10.098;2022-08-18T07:09:53;31.38;;;21.95;;
43807;SDS011;29438;50.664;10.098;2022-08-18T07:12:20;34.08;;;22.45;;
43807;SDS011;29438;50.664;10.098;2022-08-18T07:14:53;34.40;;;22.88;;
43807;SDS011;29438;50.664;10.098;2022-08-18T07:17:29;33.53;;;22.40;;
43807;SDS011;29438;50.664;10.098;2022-08-18T07:20:06;32.22;;;22.65;;
43807;SDS011;29438;50.664;10.098;2022-08-18T07:23:42;31.58;;;21.85;;
43807;SDS011;29438;50.664;10.098;2022-08-18T07:25:48;27.90;;;20.27;;
43807;SDS011;29438;50.664;10.098;2022-08-18T07:31:17;35.92;;;23.13;;
43807;SDS011;29438;50.664;10.098;2022-08-18T07:34:08;49.28;;;37.65;;
43807;SDS011;29438;50.664;10.098;2022-08-18T07:36:39;38.30;;;26.35;;
43807;SDS011;29438;50.664;10.098;2022-08-18T07:41:51;36.72;;;25.13;;
43807;SDS011;29438;50.664;10.098;2022-08-18T07:44:34;38.33;;;25.45;;
43807;SDS011;29438;50.664;10.098;2022-08-18T07:47:22;41.05;;;26.92;;
43807;SDS011;29438;50.664;10.098;2022-08-18T07:50:02;36.17;;;25.52;;
43807;SDS011;29438;50.664;10.098;2022-08-18T07:52:35;41.50;;;26.50;;
43807;SDS011;29438;50.664;10.098;2022-08-18T07:55:23;37.63;;;25.15;;
43807;SDS011;29438;50.664;10.098;2022-08-18T08:09:10;42.15;;;27.63;;
43807;SDS011;29438;50.664;10.098;2022-08-18T08:12:01;38.33;;;25.58;;
43807;SDS011;29438;50.664;10.098;2022-08-18T08:14:56;39.95;;;25.52;;
43807;SDS011;29438;50.664;10.098;2022-08-18T08:20:54;33.42;;;24.45;;
43807;SDS011;29438;50.664;10.098;2022-08-18T08:34:10;44.50;;;30.55;;
43807;SDS011;29438;50.664;10.098;2022-08-18T08:36:52;40.55;;;27.80;;
43807;SDS011;29438;50.664;10.098;2022-08-18T08:39:26;41.58;;;26.50;;
43807;SDS011;29438;50.664;10.098;2022-08-18T08:44:55;44.25;;;29.58;;
43807;SDS011;29438;50.664;10.098;2022-08-18T08:47:28;48.55;;;30.83;;
43807;SDS011;29438;50.664;10.098;2022-08-18T08:50:00;46.42;;;30.75;;
43807;SDS011;29438;50.664;10.098;2022-08-18T08:55:59;48.00;;;29.42;;
43807;SDS011;29438;50.664;10.098;2022-08-18T08:58:32;47.28;;;29.88;;
43807;SDS011;29438;50.664;10.098;2022-08-18T09:01:21;49.47;;;30.75;;
43807;SDS011;29438;50.664;10.098;2022-08-18T09:04:03;45.83;;;30.38;;
43807;SDS011;29438;50.664;10.098;2022-08-18T09:09:46;47.67;;;31.35;;
43807;SDS011;29438;50.664;10.098;2022-08-18T09:12:34;46.80;;;31.40;;
43807;SDS011;29438;50.664;10.098;2022-08-18T09:15:15;48.22;;;32.13;;
43807;SDS011;29438;50.664;10.098;2022-08-18T09:23:33;40.10;;;27.98;;
43807;SDS011;29438;50.664;10.098;2022-08-18T09:29:45;33.60;;;22.75;;
43807;SDS011;29438;50.664;10.098;2022-08-18T09:35:02;30.20;;;20.00;;
43807;SDS011;29438;50.664;10.098;2022-08-18T09:37:45;25.42;;;18.75;;
43807;SDS011;29438;50.664;10.098;2022-08-18T09:40:45;24.65;;;17.55;;
43807;SDS011;29438;50.664;10.098;2022-08-18T09:43:37;24.48;;;18.05;;
43807;SDS011;29438;50.664;10.098;2022-08-18T09:46:17;23.75;;;17.85;;
43807;SDS011;29438;50.664;10.098;2022-08-18T09:51:49;27.05;;;19.02;;
43807;SDS011;29438;50.664;10.098;2022-08-18T09:54:18;19.63;;;14.07;;
43807;SDS011;29438;50.664;10.098;2022-08-18T09:59:49;19.13;;;15.23;;
43807;SDS011;29438;50.664;10.098;2022-08-18T10:02:05;20.15;;;15.18;;
43807;SDS011;29438;50.664;10.098;2022-08-18T10:04:36;21.60;;;16.30;;
43807;SDS011;29438;50.664;10.098;2022-08-18T10:10:17;20.15;;;14.55;;
43807;SDS011;29438;50.664;10.098;2022-08-18T10:13:32;19.88;;;14.68;;
43807;SDS011;29438;50.664;10.098;2022-08-18T10:29:08;42.17;;;29.20;;
43807;SDS011;29438;50.664;10.098;2022-08-18T10:37:11;38.47;;;27.00;;
43807;SDS011;29438;50.664;10.098;2022-08-18T10:39:47;34.10;;;24.60;;
43807;SDS011;29438;50.664;10.098;2022-08-18T10:42:32;28.83;;;21.80;;
43807;SDS011;29438;50.664;10.098;2022-08-18T10:47:37;45.35;;;29.95;;
43807;SDS011;29438;50.664;10.098;2022-08-18T10:50:06;40.33;;;27.95;;
43807;SDS011;29438;50.664;10.098;2022-08-18T10:53:03;42.00;;;28.23;;
43807;SDS011;29438;50.664;10.098;2022-08-18T10:55:53;39.90;;;27.75;;
43807;SDS011;29438;50.664;10.098;2022-08-18T10:58:33;33.30;;;23.45;;
43807;SDS011;29438;50.664;10.098;2022-08-18T11:03:59;30.40;;;21.60;;
43807;SDS011;29438;50.664;10.098;2022-08-18T11:06:42;29.33;;;20.60;;
43807;SDS011;29438;50.664;10.098;2022-08-18T11:09:11;31.58;;;22.35;;
43807;SDS011;29438;50.664;10.098;2022-08-18T11:11:38;29.83;;;21.98;;
43807;SDS011;29438;50.664;10.098;2022-08-18T11:14:14;33.33;;;22.63;;
43807;SDS011;29438;50.664;10.098;2022-08-18T11:17:12;37.33;;;25.77;;
43807;SDS011;29438;50.664;10.098;2022-08-18T11:19:48;34.72;;;23.60;;
43807;SDS011;29438;50.664;10.098;2022-08-18T11:22:20;30.77;;;22.13;;
43807;SDS011;29438;50.664;10.098;2022-08-18T11:24:45;29.30;;;19.88;;
43807;SDS011;29438;50.664;10.098;2022-08-18T11:27:24;27.60;;;18.98;;
43807;SDS011;29438;50.664;10.098;2022-08-18T11:29:54;27.25;;;18.88;;
43807;SDS011;29438;50.664;10.098;2022-08-18T11:42:59;32.78;;;22.95;;
43807;SDS011;29438;50.664;10.098;2022-08-18T11:45:46;35.95;;;25.45;;
43807;SDS011;29438;50.664;10.098;2022-08-18T11:53:24;35.60;;;23.65;;
43807;SDS011;29438;50.664;10.098;2022-08-18T11:58:42;32.85;;;22.23;;
43807;SDS011;29438;50.664;10.098;2022-08-18T12:04:28;24.30;;;17.77;;
43807;SDS011;29438;50.664;10.098;2022-08-18T12:07:07;23.55;;;16.90;;
43807;SDS011;29438;50.664;10.098;2022-08-18T12:09:44;25.67;;;18.27;;
43807;SDS011;29438;50.664;10.098;2022-08-18T12:12:21;21.73;;;17.05;;
43807;SDS011;29438;50.664;10.098;2022-08-18T12:14:54;22.17;;;16.25;;
43807;SDS011;29438;50.664;10.098;2022-08-18T12:17:22;24.85;;;18.98;;
43807;SDS011;29438;50.664;10.098;2022-08-18T12:19:48;24.67;;;17.58;;
43807;SDS011;29438;50.664;10.098;2022-08-18T12:22:16;25.75;;;17.55;;
43807;SDS011;29438;50.664;10.098;2022-08-18T12:24:44;22.25;;;16.45;;
43807;SDS011;29438;50.664;10.098;2022-08-18T12:27:11;22.67;;;17.40;;
43807;SDS011;29438;50.664;10.098;2022-08-18T12:29:39;23.45;;;17.20;;
43807;SDS011;29438;50.664;10.098;2022-08-18T12:32:05;26.05;;;19.15;;
43807;SDS011;29438;50.664;10.098;2022-08-18T12:34:31;21.30;;;17.25;;
43807;SDS011;29438;50.664;10.098;2022-08-18T12:36:57;22.73;;;16.35;;
43807;SDS011;29438;50.664;10.098;2022-08-18T12:39:27;21.13;;;15.35;;
43807;SDS011;29438;50.664;10.098;2022-08-18T12:41:54;19.13;;;14.27;;
43807;SDS011;29438;50.664;10.098;2022-08-18T12:44:20;25.52;;;18.80;;
43807;SDS011;29438;50.664;10.098;2022-08-18T12:46:46;24.33;;;18.55;;
43807;SDS011;29438;50.664;10.098;2022-08-18T12:49:19;24.25;;;17.58;;
43807;SDS011;29438;50.664;10.098;2022-08-18T12:51:47;24.88;;;18.63;;
43807;SDS011;29438;50.664;10.098;2022-08-18T12:54:13;26.08;;;19.65;;
43807;SDS011;29438;50.664;10.098;2022-08-18T12:56:39;24.17;;;18.27;;
43807;SDS011;29438;50.664;10.098;2022-08-18T12:59:07;29.13;;;20.38;;
43807;SDS011;29438;50.664;10.098;2022-08-18T13:01:34;28.38;;;20.40;;
43807;SDS011;29438;50.664;10.098;2022-08-18T13:04:01;29.58;;;21.13;;
43807;SDS011;29438;50.664;10.098;2022-08-18T13:06:27;28.63;;;20.23;;
43807;SDS011;29438;50.664;10.098;2022-08-18T13:08:55;26.45;;;19.55;;
43807;SDS011;29438;50.664;10.098;2022-08-18T13:11:21;24.13;;;17.85;;
43807;SDS011;29438;50.664;10.098;2022-08-18T13:13:48;24.83;;;18.27;;
43807;SDS011;29438;50.664;10.098;2022-08-18T13:16:14;20.80;;;16.58;;
43807;SDS011;29438;50.664;10.098;2022-08-18T13:18:42;22.92;;;16.15;;
43807;SDS011;29438;50.664;10.098;2022-08-18T13:21:09;23.33;;;17.90;;
43807;SDS011;29438;50.664;10.098;2022-08-18T13:23:36;23.50;;;17.40;;
43807;SDS011;29438;50.664;10.098;2022-08-18T13:26:04;26.13;;;18.98;;
43807;SDS011;29438;50.664;10.098;2022-08-18T13:28:33;21.40;;;16.17;;
43807;SDS011;29438;50.664;10.098;2022-08-18T13:30:59;19.15;;;14.55;;
43807;SDS011;29438;50.664;10.098;2022-08-18T13:33:25;19.25;;;14.93;;
43807;SDS011;29438;50.664;10.098;2022-08-18T13:35:51;19.27;;;14.95;;
43807;SDS011;29438;50.664;10.098;2022-08-18T13:38:18;20.20;;;15.05;;
43807;SDS011;29438;50.664;10.098;2022-08-18T13:40:45;19.83;;;15.48;;
43807;SDS011;29438;50.664;10.098;2022-08-18T13:43:12;18.48;;;13.68;;
43807;SDS011;29438;50.664;10.098;2022-08-18T13:45:39;20.42;;;15.02;;
43807;SDS011;29438;50.664;10.098;2022-08-18T13:48:06;20.08;;;16.08;;
43807;SDS011;29438;50.664;10.098;2022-08-18T13:50:32;20.27;;;16.00;;
43807;SDS011;29438;50.664;10.098;2022-08-18T13:53:02;21.15;;;15.00;;
43807;SDS011;29438;50.664;10.098;2022-08-18T13:55:28;20.50;;;16.02;;
43807;SDS011;29438;50.664;10.098;2022-08-18T13:57:53;23.70;;;16.92;;
43807;SDS011;29438;50.664;10.098;2022-08-18T14:00:20;23.02;;;17.42;;
43807;SDS011;29438;50.664;10.098;2022-08-18T14:02:47;20.55;;;16.33;;
43807;SDS011;29438;50.664;10.098;2022-08-18T14:05:19;21.02;;;16.55;;
43807;SDS011;29438;50.664;10.098;2022-08-18T14:07:46;19.35;;;14.10;;
43807;SDS011;29438;50.664;10.098;2022-08-18T14:10:12;19.80;;;14.60;;
43807;SDS011;29438;50.664;10.098;2022-08-18T14:12:39;18.90;;;14.00;;
43807;SDS011;29438;50.664;10.098;2022-08-18T14:15:06;18.08;;;14.05;;
43807;SDS011;29438;50.664;10.098;2022-08-18T14:17:34;22.08;;;15.43;;
43807;SDS011;29438;50.664;10.098;2022-08-18T14:20:00;19.67;;;14.80;;
43807;SDS011;29438;50.664;10.098;2022-08-18T14:22:46;18.00;;;13.75;;
43807;SDS011;29438;50.664;10.098;2022-08-18T14:25:30;17.40;;;13.30;;
43807;SDS011;29438;50.664;10.098;2022-08-18T14:28:14;20.65;;;15.70;;
43807;SDS011;29438;50.664;10.098;2022-08-18T14:30:43;22.30;;;15.38;;
43807;SDS011;29438;50.664;10.098;2022-08-18T14:33:16;20.23;;;15.65;;
43807;SDS011;29438;50.664;10.098;2022-08-18T14:35:44;20.48;;;15.77;;
43807;SDS011;29438;50.664;10.098;2022-08-18T14:38:11;21.13;;;15.32;;
43807;SDS011;29438;50.664;10.098;2022-08-18T14:40:39;21.83;;;14.55;;
43807;SDS011;29438;50.664;10.098;2022-08-18T14:43:06;20.38;;;15.35;;
43807;SDS011;29438;50.664;10.098;2022-08-18T14:45:31;19.55;;;14.82;;
43807;SDS011;29438;50.664;10.098;2022-08-18T14:47:58;19.30;;;14.90;;
43807;SDS011;29438;50.664;10.098;2022-08-18T14:50:23;19.20;;;14.60;;
43807;SDS011;29438;50.664;10.098;2022-08-18T14:52:49;18.73;;;14.68;;
43807;SDS011;29438;50.664;10.098;2022-08-18T14:55:15;20.48;;;15.18;;
43807;SDS011;29438;50.664;10.098;2022-08-18T14:57:41;18.88;;;14.48;;
43807;SDS011;29438;50.664;10.098;2022-08-18T15:00:09;19.25;;;14.85;;
43807;SDS011;29438;50.664;10.098;2022-08-18T15:02:39;22.27;;;16.77;;
43807;SDS011;29438;50.664;10.098;2022-08-18T15:05:06;20.70;;;15.55;;
43807;SDS011;29438;50.664;10.098;2022-08-18T15:07:33;18.33;;;13.52;;
43807;SDS011;29438;50.664;10.098;2022-08-18T15:10:06;19.45;;;13.68;;
43807;SDS011;29438;50.664;10.098;2022-08-18T15:12:33;19.90;;;14.25;;
43807;SDS011;29438;50.664;10.098;2022-08-18T15:14:59;18.88;;;14.18;;
43807;SDS011;29438;50.664;10.098;2022-08-18T15:17:25;19.15;;;14.90;;
43807;SDS011;29438;50.664;10.098;2022-08-18T15:19:51;17.70;;;13.18;;
43807;SDS011;29438;50.664;10.098;2022-08-18T15:22:17;20.45;;;14.52;;
43807;SDS011;29438;50.664;10.098;2022-08-18T15:25:02;17.80;;;13.63;;
43807;SDS011;29438;50.664;10.098;2022-08-18T15:27:47;16.23;;;12.60;;
43807;SDS011;29438;50.664;10.098;2022-08-18T15:30:14;18.95;;;13.70;;
43807;SDS011;29438;50.664;10.098;2022-08-18T15:32:41;19.88;;;13.18;;
43807;SDS011;29438;50.664;10.098;2022-08-18T15:35:09;18.00;;;13.18;;
43807;SDS011;29438;50.664;10.098;2022-08-18T15:37:36;15.30;;;11.55;;
43807;SDS011;29438;50.664;10.098;2022-08-18T15:40:13;18.20;;;13.85;;
43807;SDS011;29438;50.664;10.098;2022-08-18T15:42:43;17.35;;;12.93;;
43807;SDS011;29438;50.664;10.098;2022-08-18T15:45:10;17.00;;;13.50;;
43807;SDS011;29438;50.664;10.098;2022-08-18T15:47:40;20.02;;;15.07;;
43807;SDS011;29438;50.664;10.098;2022-08-18T15:50:06;19.17;;;14.00;;
43807;SDS011;29438;50.664;10.098;2022-08-18T15:52:32;19.38;;;14.48;;
43807;SDS011;29438;50.664;10.098;2022-08-18T15:54:59;19.95;;;15.18;;
43807;SDS011;29438;50.664;10.098;2022-08-18T15:57:25;21.33;;;15.95;;
43807;SDS011;29438;50.664;10.098;2022-08-18T15:59:54;22.25;;;16.75;;
43807;SDS011;29438;50.664;10.098;2022-08-18T16:02:20;22.45;;;14.73;;
43807;SDS011;29438;50.664;10.098;2022-08-18T16:04:45;22.27;;;14.73;;
43807;SDS011;29438;50.664;10.098;2022-08-18T16:07:11;21.90;;;15.70;;
43807;SDS011;29438;50.664;10.098;2022-08-18T16:09:39;21.20;;;15.63;;
43807;SDS011;29438;50.664;10.098;2022-08-18T16:12:06;22.10;;;15.52;;
43807;SDS011;29438;50.664;10.098;2022-08-18T16:14:35;20.48;;;14.73;;
43807;SDS011;29438;50.664;10.098;2022-08-18T16:17:02;20.90;;;13.65;;
43807;SDS011;29438;50.664;10.098;2022-08-18T16:19:28;18.83;;;13.70;;
43807;SDS011;29438;50.664;10.098;2022-08-18T16:21:54;19.50;;;13.40;;
43807;SDS011;29438;50.664;10.098;2022-08-18T16:24:20;19.00;;;13.70;;
43807;SDS011;29438;50.664;10.098;2022-08-18T16:26:47;17.50;;;13.10;;
43807;SDS011;29438;50.664;10.098;2022-08-18T16:29:13;18.95;;;13.65;;
43807;SDS011;29438;50.664;10.098;2022-08-18T16:31:39;16.77;;;12.80;;
43807;SDS011;29438;50.664;10.098;2022-08-18T16:34:05;17.40;;;12.57;;
43807;SDS011;29438;50.664;10.098;2022-08-18T16:36:31;21.00;;;14.18;;
43807;SDS011;29438;50.664;10.098;2022-08-18T16:38:56;16.35;;;12.02;;
43807;SDS011;29438;50.664;10.098;2022-08-18T16:41:22;16.48;;;11.55;;
43807;SDS011;29438;50.664;10.098;2022-08-18T16:43:48;14.18;;;10.48;;
43807;SDS011;29438;50.664;10.098;2022-08-18T16:46:15;13.07;;;10.23;;
43807;SDS011;29438;50.664;10.098;2022-08-18T16:48:47;13.70;;;10.48;;
43807;SDS011;29438;50.664;10.098;2022-08-18T16:51:16;13.68;;;10.38;;
43807;SDS011;29438;50.664;10.098;2022-08-18T16:53:43;16.23;;;11.93;;
43807;SDS011;29438;50.664;10.098;2022-08-18T16:56:15;15.20;;;11.23;;
43807;SDS011;29438;50.664;10.098;2022-08-18T16:58:42;16.90;;;12.45;;
43807;SDS011;29438;50.664;10.098;2022-08-18T17:04:12;18.13;;;12.65;;
43807;SDS011;29438;50.664;10.098;2022-08-18T17:06:42;18.13;;;12.88;;